Flight Information

DEPARTURE
SEATTLE, WA
Elevation:
432
Runways:
16C/34C - 9426x150 - CONC-E
16L/34R - 11901x150 - CONC-E
16R/34L - 8500x150 - CONC-E
Active PE Departure:
34C - 34L - 34R
Current PE ATIS:
F
Altimeter:
30.29
Remarks:
SIMULTANEOUS APPROACHES TO PARALLEL RUNWAYS IN USE. SIMULTANEOUS APPROACHES IN USE BETWEEN SEATTLE AND BOEING FIELD. TRAFFIC BELOW YOU ON FINAL. V F R DEPARTURES CONTACT CLEARANCE DELIVERY, ADVISE ON COURSE HEADING, ALTITUDE, AND IF FLIGHT FOLLOWING IS REQUESTED.
ATIS:
118 206-241-6025
Clearance Delivery:
128
Ground:
121.7
Tower:
SEATTLE TOWER
119.9 (RWYS 16C-34C, 16L-34R)
120.95 (RWY 16R-34L)
DESTINATION
KALISPELL, MT
Elevation:
2976
TPA:
3976 (est.)
Runways:
12/30 - 3510x75 - ASPH-G
2/20 - 9007x150 - ASPH-G
ATIS:
132.625
Tower:
GLACIER TOWER 124.55
Ground:
121.6


328.1 NM78° True-20° Var57° HDG

Flight Plan:
(click to file on line)

1. Type
2. Aircraft Identification
3. Aircraft Type / Special Equipment
4. True Airspeed
kts
5. Departure Airport
(ICAO code)
6. Arriving Airport
(ICAO code)
7. Cruising Altitude
ft
8. Alternate Airport
(ICAO code)
9. Route of Flight
10. Remarks


00:00:00 Departure ATIS: Destination ATIS:

Clearance Limit:
Route:
Altitude: Expect in minutes
Frequency:
Transponder: (7500 Hijack / 7600 Lost Comms / 7700 Emergency)


KSEA 110253Z 01014KT 10SM SCT065 BKN085 BKN250 08/M01 A3029 RMK AO2 SLP266 T00781011 52010
Time: 2021-04-11T02:53:00Z
1618113152
Winds: 10 @ 14 kts
Visibility: 10.0 sm
Clouds (AGL): SCT 6500
BKN 8500
BKN 25000
Temperature: 7.8 C
Dew Point: -1.1 C
Pressure: 30.28937 in Hgbr

KGPI 110255Z 22004KT 10SM SCT055 SCT075 BKN120 01/M06 A2996 RMK AO2 SLP164 T00111061 53031
Time: 2021-04-11T02:55:00Z
1618113152
Winds: 220 @ 4 kts
Visibility: 10.0 sm
Clouds (AGL): SCT 5500
SCT 7500
BKN 12000
Temperature: 1.1 C
Dew Point: -6.1 C
Pressure: 29.958662 in Hgbr


Notes:

Data extracted from FAA Digital Chart Supplement. Effective: 0901Z Thursday, Feb 25, 2021 to 0901Z Thursday, APR 22, 2021
Current ATIS data is provided courtisy of PilotEdge.